createdAt,value
2018-11-04T00:02:10.056Z,55.87
2018-11-04T00:04:38.989Z,59.20
2018-11-04T00:07:08.021Z,66.73
2018-11-04T00:09:36.878Z,58.83
2018-11-04T00:12:05.985Z,54.53
2018-11-04T00:14:34.871Z,55.77
2018-11-04T00:17:03.909Z,60.83
2018-11-04T00:19:32.828Z,67.43
2018-11-04T00:22:01.649Z,56.97
2018-11-04T00:24:30.659Z,60.83
2018-11-04T00:26:59.520Z,59.17
2018-11-04T00:29:28.633Z,57.03
2018-11-04T00:31:57.517Z,53.50
2018-11-04T00:34:26.219Z,54.97
2018-11-04T00:36:55.170Z,51.47
2018-11-04T00:39:24.097Z,51.93
2018-11-04T00:41:52.891Z,48.50
2018-11-04T00:44:21.794Z,44.73
2018-11-04T00:46:51.388Z,44.33
2018-11-04T00:49:21.243Z,44.80
2018-11-04T00:51:50.096Z,51.27
2018-11-04T00:54:18.865Z,46.50
2018-11-04T00:56:47.625Z,47.77
2018-11-04T00:59:16.387Z,46.50
2018-11-04T01:01:45.289Z,49.03
2018-11-04T01:04:14.127Z,48.73
2018-11-04T01:06:42.909Z,46.50
2018-11-04T01:09:11.932Z,45.47
2018-11-04T01:11:40.627Z,43.27
2018-11-04T01:14:09.979Z,42.67
2018-11-04T01:16:38.754Z,45.97
2018-11-04T01:19:08.023Z,48.40
2018-11-04T01:21:36.834Z,46.53
2018-11-04T01:24:05.867Z,48.13
2018-11-04T01:26:34.653Z,47.27
2018-11-04T01:29:05.104Z,47.90
2018-11-04T01:31:33.978Z,48.40
2018-11-04T01:34:03.201Z,54.27
2018-11-04T01:36:32.768Z,50.27
2018-11-04T01:39:01.670Z,53.30
2018-11-04T01:41:30.734Z,53.73
2018-11-04T01:43:59.549Z,51.00
2018-11-04T01:46:28.324Z,49.67
2018-11-04T01:48:57.567Z,52.20
2018-11-04T01:51:26.400Z,48.97
2018-11-04T01:53:55.213Z,49.37
2018-11-04T01:56:24.153Z,53.10
2018-11-04T01:58:52.954Z,48.90
2018-11-04T02:01:22.025Z,47.43
2018-11-04T02:03:51.104Z,50.30
2018-11-04T02:06:20.271Z,51.13
2018-11-04T02:08:49.181Z,62.93
2018-11-04T02:11:18.056Z,50.10
2018-11-04T02:13:46.881Z,54.67
2018-11-04T02:16:15.787Z,52.73
2018-11-04T02:18:44.623Z,52.27
2018-11-04T02:21:14.641Z,49.97
2018-11-04T02:23:43.376Z,52.57
2018-11-04T02:26:12.421Z,47.63
2018-11-04T02:28:41.145Z,55.10
2018-11-04T02:31:10.188Z,49.50
2018-11-04T02:33:38.960Z,51.33
2018-11-04T02:36:07.901Z,49.03
2018-11-04T02:38:36.676Z,54.73
2018-11-04T02:41:06.425Z,53.37
2018-11-04T02:43:35.175Z,50.00
2018-11-04T02:46:04.635Z,59.23
2018-11-04T02:48:33.527Z,44.30
2018-11-04T02:51:02.393Z,50.20
2018-11-04T02:53:31.381Z,54.67
2018-11-04T02:56:00.176Z,46.47
2018-11-04T02:58:29.051Z,52.97
2018-11-04T03:00:58.125Z,60.33
2018-11-04T03:03:26.936Z,54.90
2018-11-04T03:05:55.920Z,55.50
2018-11-04T03:08:24.791Z,52.80
2018-11-04T03:10:53.659Z,53.17
2018-11-04T03:13:22.744Z,55.47
2018-11-04T03:15:51.609Z,61.40
2018-11-04T03:18:20.465Z,55.17
2018-11-04T03:20:49.249Z,52.90
2018-11-04T03:23:18.011Z,52.33
2018-11-04T03:25:47.545Z,59.20
2018-11-04T03:28:16.694Z,58.73
2018-11-04T03:30:45.578Z,56.37
2018-11-04T03:33:14.358Z,57.00
2018-11-04T03:35:43.182Z,57.17
2018-11-04T03:38:12.343Z,47.90
2018-11-04T03:40:41.133Z,52.83
2018-11-04T03:43:10.083Z,61.93
2018-11-04T03:45:38.894Z,55.83
2018-11-04T03:48:07.837Z,54.70
2018-11-04T03:50:36.624Z,59.60
2018-11-04T03:53:06.421Z,52.33
2018-11-04T03:55:36.131Z,53.57
2018-11-04T03:58:05.697Z,50.77
2018-11-04T04:00:35.501Z,48.47
2018-11-04T04:03:04.531Z,47.63
2018-11-04T04:05:34.314Z,56.37
2018-11-04T04:08:03.172Z,50.83
2018-11-04T04:10:31.966Z,55.07
2018-11-04T04:13:00.768Z,48.47
2018-11-04T04:15:29.632Z,53.47
2018-11-04T04:17:58.486Z,49.20
2018-11-04T04:20:27.332Z,52.13
2018-11-04T04:22:56.162Z,53.30
2018-11-04T04:25:24.957Z,50.40
2018-11-04T04:27:53.704Z,51.67
2018-11-04T04:30:23.250Z,51.87
2018-11-04T04:32:52.035Z,45.93
2018-11-04T04:35:20.905Z,48.73
2018-11-04T04:37:49.649Z,42.83
2018-11-04T04:40:18.495Z,50.00
2018-11-04T04:42:47.240Z,49.77
2018-11-04T04:45:16.036Z,50.87
2018-11-04T04:47:44.828Z,51.80
2018-11-04T04:50:13.651Z,51.57
2018-11-04T04:52:43.260Z,51.60
2018-11-04T04:55:12.305Z,42.50
2018-11-04T04:57:41.045Z,47.67
2018-11-04T05:00:09.908Z,47.90
2018-11-04T05:02:39.004Z,49.17
2018-11-04T05:05:07.894Z,50.30
2018-11-04T05:07:36.814Z,47.20
2018-11-04T05:10:06.074Z,46.17
2018-11-04T05:12:34.932Z,48.30
2018-11-04T05:15:03.785Z,47.30
2018-11-04T05:17:32.645Z,50.80
2018-11-04T05:20:01.423Z,50.30
2018-11-04T05:22:30.532Z,50.20
2018-11-04T05:24:59.635Z,50.30
2018-11-04T05:27:28.720Z,52.00
2018-11-04T05:29:57.519Z,51.63
2018-11-04T05:32:26.317Z,50.33
2018-11-04T05:34:55.123Z,48.93
2018-11-04T05:37:23.967Z,51.50
2018-11-04T05:39:52.884Z,52.33
2018-11-04T05:42:22.250Z,56.00
2018-11-04T05:44:50.953Z,47.63
2018-11-04T05:47:19.838Z,50.87
2018-11-04T05:49:48.773Z,49.53
2018-11-04T05:52:17.592Z,49.00
2018-11-04T05:54:46.352Z,50.97
2018-11-04T05:57:15.255Z,47.67
2018-11-04T05:59:44.166Z,51.60
2018-11-04T06:02:13.937Z,48.20
2018-11-04T06:04:42.825Z,50.13
2018-11-04T06:07:12.124Z,50.13
2018-11-04T06:09:40.990Z,49.73
2018-11-04T06:12:09.852Z,46.10
2018-11-04T06:14:38.726Z,52.30
2018-11-04T06:17:07.801Z,55.07
2018-11-04T06:19:36.796Z,52.10
2018-11-04T06:22:06.040Z,59.13
2018-11-04T06:24:34.813Z,55.50
2018-11-04T06:27:03.865Z,55.37
2018-11-04T06:29:33.562Z,52.13
2018-11-04T06:32:03.290Z,52.00
2018-11-04T06:34:32.124Z,55.03
2018-11-04T06:37:00.868Z,52.53
2018-11-04T06:39:29.963Z,57.03
2018-11-04T06:41:58.728Z,51.17
2018-11-04T06:44:27.509Z,52.13
2018-11-04T06:46:56.420Z,52.90
2018-11-04T06:49:25.379Z,49.70
2018-11-04T06:51:54.200Z,53.50
2018-11-04T06:54:23.887Z,56.10
2018-11-04T06:56:52.736Z,54.80
2018-11-04T06:59:21.658Z,58.27
2018-11-04T07:01:50.769Z,50.30
2018-11-04T07:04:23.258Z,54.67
2018-11-04T07:06:54.016Z,47.37
2018-11-04T07:09:28.198Z,48.27
2018-11-04T07:11:57.065Z,46.90
2018-11-04T07:14:26.062Z,53.00
2018-11-04T07:16:54.861Z,53.60
2018-11-04T07:19:23.858Z,53.10
2018-11-04T07:21:52.681Z,50.43
2018-11-04T07:24:22.661Z,47.37
2018-11-04T07:26:52.304Z,48.67
2018-11-04T07:29:22.400Z,55.57
2018-11-04T07:31:51.831Z,49.10
2018-11-04T07:34:21.382Z,46.03
2018-11-04T07:36:51.498Z,57.47
2018-11-04T07:39:20.410Z,50.17
2018-11-04T07:41:49.295Z,45.90
2018-11-04T07:44:18.277Z,50.90
2018-11-04T07:46:47.076Z,47.13
2018-11-04T07:49:16.060Z,47.43
2018-11-04T07:51:46.094Z,50.50
2018-11-04T07:54:15.096Z,49.70
2018-11-04T07:56:44.021Z,45.30
2018-11-04T07:59:13.382Z,49.17
2018-11-04T08:01:42.349Z,45.17
2018-11-04T08:04:12.537Z,46.10
2018-11-04T08:06:41.287Z,47.50
2018-11-04T08:09:11.135Z,42.77
2018-11-04T08:11:40.205Z,48.43
2018-11-04T08:14:09.314Z,43.80
2018-11-04T08:16:38.308Z,45.67
2018-11-04T08:19:07.097Z,50.37
2018-11-04T08:21:36.028Z,53.30
2018-11-04T08:24:04.926Z,48.70
2018-11-04T08:26:33.784Z,53.77
2018-11-04T08:29:02.666Z,50.87
2018-11-04T08:31:31.776Z,50.33
2018-11-04T08:34:01.001Z,44.37
2018-11-04T08:36:29.878Z,52.90
2018-11-04T08:38:58.975Z,45.23
2018-11-04T08:41:28.045Z,60.07
2018-11-04T08:43:56.934Z,50.63
2018-11-04T08:46:27.150Z,48.17
2018-11-04T08:48:57.056Z,47.90
2018-11-04T08:51:26.017Z,50.27
2018-11-04T08:53:54.893Z,44.57
2018-11-04T08:56:23.910Z,43.33
2018-11-04T08:58:52.991Z,48.57
2018-11-04T09:01:22.275Z,47.03
2018-11-04T09:03:51.342Z,48.30
2018-11-04T09:06:20.348Z,51.13
2018-11-04T09:08:49.225Z,46.50
2018-11-04T09:11:18.370Z,49.30
2018-11-04T09:13:47.401Z,48.73
2018-11-04T09:16:16.273Z,48.60
2018-11-04T09:18:45.183Z,53.83
2018-11-04T09:21:14.017Z,52.03
2018-11-04T09:23:42.991Z,48.37
2018-11-04T09:26:12.560Z,44.60
2018-11-04T09:28:41.487Z,44.50
2018-11-04T09:31:11.149Z,41.13
2018-11-04T09:33:40.430Z,47.03
2018-11-04T09:36:09.614Z,41.67
2018-11-04T09:38:38.421Z,36.60
2018-11-04T09:41:07.490Z,44.73
2018-11-04T09:43:36.450Z,39.03
2018-11-04T09:46:05.429Z,38.77
2018-11-04T09:48:34.652Z,40.87
2018-11-04T09:51:03.934Z,43.23
2018-11-04T09:53:32.912Z,46.87
2018-11-04T09:56:01.790Z,41.23
2018-11-04T09:58:30.681Z,44.47
2018-11-04T10:01:00.489Z,41.33
2018-11-04T10:03:29.388Z,44.97
2018-11-04T10:05:58.283Z,47.77
2018-11-04T10:08:27.306Z,44.23
2018-11-04T10:10:56.428Z,43.83
2018-11-04T10:13:25.718Z,45.10
2018-11-04T10:15:54.673Z,47.27
2018-11-04T10:18:23.659Z,45.20
2018-11-04T10:20:53.089Z,40.63
2018-11-04T10:23:21.715Z,42.30
2018-11-04T10:25:50.663Z,40.70
2018-11-04T10:28:20.062Z,39.80
2018-11-04T10:30:49.994Z,42.50
2018-11-04T10:33:19.177Z,46.70
2018-11-04T10:35:48.260Z,43.03
2018-11-04T10:38:17.546Z,63.77
2018-11-04T10:40:46.617Z,45.70
2018-11-04T10:43:15.509Z,45.50
2018-11-04T10:45:44.330Z,46.10
2018-11-04T10:48:14.008Z,46.13
2018-11-04T10:50:43.534Z,41.93
2018-11-04T10:53:12.758Z,45.87
2018-11-04T10:55:41.778Z,43.70
2018-11-04T10:58:10.861Z,44.90
2018-11-04T11:00:45.186Z,43.17
2018-11-04T11:03:15.011Z,43.43
2018-11-04T11:05:44.028Z,45.07
2018-11-04T11:08:13.457Z,46.03
2018-11-04T11:10:42.459Z,43.03
2018-11-04T11:13:14.428Z,44.10
2018-11-04T11:15:43.392Z,43.87
2018-11-04T11:18:12.805Z,46.10
2018-11-04T11:20:41.924Z,46.87
2018-11-04T11:23:11.262Z,45.37
2018-11-04T11:25:40.228Z,47.10
2018-11-04T11:28:09.519Z,42.13
2018-11-04T11:30:39.208Z,43.77
2018-11-04T11:33:08.918Z,47.07
2018-11-04T11:35:37.883Z,48.67
2018-11-04T11:38:07.249Z,46.70
2018-11-04T11:40:36.294Z,41.63
2018-11-04T11:43:05.521Z,40.00
2018-11-04T11:45:34.474Z,41.47
2018-11-04T11:48:03.314Z,44.30
2018-11-04T11:50:32.287Z,42.17
2018-11-04T11:53:01.361Z,43.83
2018-11-04T11:55:30.666Z,43.90
2018-11-04T11:57:59.907Z,38.33
2018-11-04T12:00:29.082Z,42.40
2018-11-04T12:02:58.138Z,38.03
2018-11-04T12:05:27.488Z,43.37
2018-11-04T12:07:56.637Z,38.83
2018-11-04T12:10:25.596Z,39.20
2018-11-04T12:12:54.465Z,38.63
2018-11-04T12:15:23.486Z,35.70
2018-11-04T12:17:52.397Z,39.70
2018-11-04T12:20:21.326Z,43.63
2018-11-04T12:22:50.353Z,41.33
2018-11-04T12:25:19.621Z,39.17
2018-11-04T12:27:48.702Z,43.63
2018-11-04T12:30:17.712Z,43.53
2018-11-04T12:32:46.703Z,33.60
2018-11-04T12:35:15.839Z,38.07
2018-11-04T12:37:51.416Z,39.27
2018-11-04T12:40:20.356Z,40.03
2018-11-04T12:42:49.612Z,38.70
2018-11-04T12:45:18.638Z,40.37
2018-11-04T12:47:47.824Z,40.20
2018-11-04T12:50:16.945Z,42.70
2018-11-04T12:52:45.912Z,41.23
2018-11-04T12:55:15.268Z,38.83
2018-11-04T12:57:44.298Z,33.77
2018-11-04T13:00:14.840Z,39.37
2018-11-04T13:02:45.766Z,42.53
2018-11-04T13:05:14.765Z,38.10
2018-11-04T13:07:43.747Z,36.80
2018-11-04T13:10:14.796Z,33.83
2018-11-04T13:12:43.818Z,36.93
2018-11-04T13:15:14.440Z,37.87
2018-11-04T13:17:44.484Z,36.83
2018-11-04T13:20:14.141Z,36.33
2018-11-04T13:22:43.629Z,36.63
2018-11-04T13:25:13.565Z,38.77
2018-11-04T13:27:42.848Z,57.80
2018-11-04T13:30:13.134Z,44.40
2018-11-04T13:32:42.440Z,38.20
2018-11-04T13:35:12.162Z,43.53
2018-11-04T13:37:41.125Z,38.77
2018-11-04T13:40:11.456Z,37.30
2018-11-04T13:42:40.931Z,35.40
2018-11-04T13:45:10.652Z,33.00
2018-11-04T13:47:40.265Z,39.73
2018-11-04T13:50:11.646Z,32.87
2018-11-04T13:52:40.667Z,38.10
2018-11-04T13:55:10.179Z,37.50
2018-11-04T13:57:39.602Z,35.77
2018-11-04T14:00:12.042Z,33.70
2018-11-04T14:02:41.488Z,35.43
2018-11-04T14:05:11.639Z,39.10
2018-11-04T14:07:41.030Z,35.03
2018-11-04T14:10:12.299Z,38.23
2018-11-04T14:12:42.015Z,39.60
2018-11-04T14:15:12.065Z,34.93
2018-11-04T14:17:41.583Z,37.47
2018-11-04T14:20:12.409Z,36.70
2018-11-04T14:22:41.994Z,35.37
2018-11-04T14:25:12.233Z,36.93
2018-11-04T14:27:41.264Z,29.87
2018-11-04T14:30:12.921Z,35.20
2018-11-04T14:32:42.622Z,32.77
2018-11-04T14:35:12.328Z,33.73
2018-11-04T14:37:42.235Z,37.07
2018-11-04T14:40:13.156Z,33.47
2018-11-04T14:42:43.290Z,35.37
2018-11-04T14:45:13.595Z,31.10
2018-11-04T14:47:42.716Z,33.27
2018-11-04T14:50:14.773Z,30.30
2018-11-04T14:52:44.098Z,32.00
2018-11-04T14:58:06.556Z,39.10
2018-11-04T15:00:36.446Z,34.17
2018-11-04T15:03:06.700Z,39.03
2018-11-04T15:05:35.829Z,38.20
2018-11-04T15:08:04.979Z,32.80
2018-11-04T15:10:34.261Z,33.33
2018-11-04T15:13:03.367Z,31.07
2018-11-04T15:15:32.500Z,35.20
2018-11-04T15:18:01.473Z,34.20
2018-11-04T15:20:30.518Z,38.20
2018-11-04T15:22:59.521Z,29.27
2018-11-04T15:25:28.434Z,34.93
2018-11-04T15:27:57.488Z,33.50
2018-11-04T15:30:27.617Z,31.90
2018-11-04T15:32:56.601Z,35.93
2018-11-04T15:35:25.586Z,32.13
2018-11-04T15:37:54.525Z,35.60
2018-11-04T15:40:24.563Z,36.00
2018-11-04T15:42:53.526Z,34.17
2018-11-04T15:45:22.483Z,32.67
2018-11-04T15:47:51.571Z,34.77
2018-11-04T15:50:20.643Z,32.53
2018-11-04T15:52:49.903Z,34.70
2018-11-04T15:55:18.909Z,32.37
2018-11-04T15:57:47.945Z,38.30
2018-11-04T16:00:16.983Z,35.30
2018-11-04T16:02:46.087Z,36.90
2018-11-04T16:05:15.677Z,33.40
2018-11-04T16:08:02.566Z,40.87
2018-11-04T16:10:34.671Z,33.87
2018-11-04T16:15:55.442Z,31.23
2018-11-04T16:18:25.489Z,34.60
2018-11-04T16:20:54.630Z,31.23
2018-11-04T16:23:24.265Z,38.73
2018-11-04T16:25:55.356Z,37.50
2018-11-04T16:28:27.554Z,37.00
2018-11-04T16:30:57.623Z,35.17
2018-11-04T16:33:27.645Z,36.17
2018-11-04T16:35:57.707Z,34.10
2018-11-04T16:38:28.018Z,35.10
2018-11-04T16:40:57.343Z,32.67
2018-11-04T16:43:27.999Z,34.27
2018-11-04T16:45:58.314Z,36.10
2018-11-04T16:48:29.158Z,34.10
2018-11-04T16:53:43.362Z,37.27
2018-11-04T16:56:12.434Z,38.97
2018-11-04T16:58:42.495Z,39.57
2018-11-04T17:01:12.031Z,36.63
2018-11-04T17:03:41.559Z,35.20
2018-11-04T17:06:15.109Z,36.43
2018-11-04T17:08:46.358Z,36.47
2018-11-04T17:13:55.216Z,41.23
2018-11-04T17:16:24.261Z,36.70
2018-11-04T17:18:53.418Z,35.30
2018-11-04T17:21:24.761Z,38.70
2018-11-04T17:26:45.231Z,34.17
2018-11-04T17:29:15.833Z,33.00
2018-11-04T17:37:25.210Z,31.23
2018-11-04T17:39:54.057Z,37.37
2018-11-04T17:42:23.062Z,33.97
2018-11-04T17:44:52.121Z,29.40
2018-11-04T17:47:22.302Z,26.77
2018-11-04T17:49:51.296Z,33.37
2018-11-04T17:52:20.450Z,33.13
2018-11-04T17:54:49.360Z,34.13
2018-11-04T17:57:18.841Z,34.33
2018-11-04T17:59:48.297Z,32.13
2018-11-04T18:02:17.208Z,38.23
2018-11-04T18:04:47.466Z,41.10
2018-11-04T18:10:07.189Z,37.30
2018-11-04T18:15:25.147Z,35.83
2018-11-04T18:17:54.092Z,33.47
2018-11-04T18:20:23.057Z,34.87
2018-11-04T18:22:51.933Z,34.60
2018-11-04T18:25:20.862Z,35.50
2018-11-04T18:27:49.853Z,32.90
2018-11-04T18:30:18.876Z,31.77
2018-11-04T18:32:47.855Z,35.27
2018-11-04T18:35:16.991Z,31.13
2018-11-04T18:37:46.096Z,33.37
2018-11-04T18:40:16.604Z,36.77
2018-11-04T18:42:46.101Z,35.20
2018-11-04T18:45:16.162Z,29.17
2018-11-04T18:47:45.420Z,35.67
2018-11-04T18:50:15.393Z,33.73
2018-11-04T18:52:44.980Z,36.10
2018-11-04T18:55:14.540Z,31.63
2018-11-04T18:57:44.375Z,31.23
2018-11-04T19:00:15.164Z,29.50
2018-11-04T19:02:44.491Z,33.60
2018-11-04T19:05:13.807Z,35.80
2018-11-04T19:07:42.808Z,30.53
2018-11-04T19:10:13.390Z,33.20
2018-11-04T19:12:44.045Z,35.40
2018-11-04T19:15:13.541Z,36.53
2018-11-04T19:17:45.507Z,39.30
2018-11-04T19:22:57.994Z,37.13
2018-11-04T19:25:26.772Z,35.70
2018-11-04T19:27:55.419Z,41.77
2018-11-04T19:30:24.217Z,35.97
2018-11-04T19:32:52.922Z,33.80
2018-11-04T19:35:21.753Z,38.17
2018-11-04T19:37:50.496Z,36.60
2018-11-04T19:40:19.288Z,42.30
2018-11-04T19:42:48.144Z,39.70
2018-11-04T19:45:16.770Z,35.60
2018-11-04T19:47:45.449Z,40.30
2018-11-04T19:50:14.326Z,37.20
2018-11-04T19:52:43.280Z,36.23
2018-11-04T19:55:13.016Z,39.50
2018-11-04T19:57:41.733Z,35.23
2018-11-04T20:00:11.487Z,37.87
2018-11-04T20:02:40.300Z,36.67
2018-11-04T20:05:10.296Z,36.93
2018-11-04T20:07:39.186Z,37.30
2018-11-04T20:10:21.516Z,32.63
2018-11-04T20:12:55.383Z,33.87
2018-11-04T20:15:24.307Z,33.47
2018-11-04T20:17:53.107Z,36.70
2018-11-04T20:20:25.268Z,33.80
2018-11-04T20:22:54.276Z,40.00
2018-11-04T20:25:28.158Z,38.20
2018-11-04T20:27:57.473Z,35.83
2018-11-04T20:30:27.016Z,37.13
2018-11-04T20:33:01.193Z,38.57
2018-11-04T20:35:30.601Z,35.40
2018-11-04T20:37:59.836Z,41.60
2018-11-04T20:41:32.927Z,41.43
2018-11-04T20:44:03.274Z,37.90
2018-11-04T20:46:33.538Z,49.30
2018-11-04T20:49:07.674Z,38.43
2018-11-04T20:51:36.774Z,37.40
2018-11-04T20:54:06.071Z,38.23
2018-11-04T20:56:40.036Z,40.30
2018-11-04T20:59:09.007Z,41.17
2018-11-04T21:01:37.846Z,38.23
2018-11-04T21:04:07.260Z,39.33
2018-11-04T21:06:36.086Z,35.20
2018-11-04T21:09:06.803Z,38.13
2018-11-04T21:11:35.732Z,40.43
2018-11-04T21:14:04.618Z,40.43
2018-11-04T21:16:33.579Z,38.30
2018-11-04T21:19:02.738Z,39.27
2018-11-04T21:21:32.422Z,32.00
2018-11-04T21:24:01.529Z,34.03
2018-11-04T21:26:30.622Z,37.97
2018-11-04T21:29:02.050Z,34.63
2018-11-04T21:31:39.309Z,34.83
2018-11-04T21:34:09.593Z,36.87
2018-11-04T21:36:38.635Z,36.63
2018-11-04T21:39:09.531Z,34.07
2018-11-04T21:41:42.594Z,35.87
2018-11-04T21:44:11.573Z,36.70
2018-11-04T21:46:40.531Z,33.87
2018-11-04T21:49:10.040Z,35.53
2018-11-04T21:51:39.151Z,34.83
2018-11-04T21:54:09.527Z,35.40
2018-11-04T21:56:39.357Z,33.80
2018-11-04T21:59:08.481Z,41.07
2018-11-04T22:01:39.724Z,39.50
2018-11-04T22:04:13.010Z,35.00
2018-11-04T22:06:42.419Z,37.77
2018-11-04T22:09:13.772Z,38.27
2018-11-04T22:11:42.648Z,36.50
2018-11-04T22:14:11.452Z,36.73
2018-11-04T22:16:46.367Z,35.17
2018-11-04T22:19:15.261Z,36.87
2018-11-04T22:21:44.165Z,32.90
2018-11-04T22:24:14.070Z,35.37
2018-11-04T22:26:43.395Z,42.30
2018-11-04T22:29:12.723Z,34.30
2018-11-04T22:31:41.562Z,33.33
2018-11-04T22:34:10.620Z,36.40
2018-11-04T22:36:40.500Z,37.67
2018-11-04T22:39:09.840Z,42.57
2018-11-04T22:41:39.663Z,39.23
2018-11-04T22:44:08.620Z,36.13
2018-11-04T22:46:37.640Z,39.80
2018-11-04T22:49:06.599Z,35.47
2018-11-04T22:51:35.489Z,37.10
2018-11-04T22:54:04.578Z,34.30
2018-11-04T22:56:35.943Z,38.53
2018-11-04T22:59:06.132Z,36.80
2018-11-04T23:01:35.021Z,35.60
2018-11-04T23:04:04.024Z,38.40
2018-11-04T23:06:33.939Z,40.13
2018-11-04T23:09:02.960Z,31.60
2018-11-04T23:11:31.825Z,33.40
2018-11-04T23:14:00.617Z,33.23
2018-11-04T23:16:29.809Z,33.30
2018-11-04T23:18:58.687Z,31.70
2018-11-04T23:21:27.464Z,29.97
2018-11-04T23:23:57.303Z,30.70
2018-11-04T23:26:26.052Z,33.90
2018-11-04T23:28:55.049Z,30.43
2018-11-04T23:31:24.020Z,31.93
2018-11-04T23:33:52.910Z,35.13
2018-11-04T23:36:21.733Z,33.17
2018-11-04T23:38:51.094Z,34.47
2018-11-04T23:41:20.058Z,33.93
2018-11-04T23:43:49.837Z,32.60
2018-11-04T23:46:19.140Z,32.00
2018-11-04T23:48:48.224Z,30.20
2018-11-04T23:51:17.081Z,31.30
2018-11-04T23:53:46.894Z,28.07
2018-11-04T23:56:15.968Z,36.27
2018-11-04T23:58:44.875Z,31.73
